createdAt,value
2024-02-03T00:02:19.861Z,2.70
2024-02-03T00:04:47.984Z,2.70
2024-02-03T00:07:16.053Z,2.70
2024-02-03T00:09:44.141Z,2.60
2024-02-03T00:12:13.313Z,2.50
2024-02-03T00:14:41.972Z,2.40
2024-02-03T00:17:10.219Z,2.50
2024-02-03T00:19:40.522Z,2.50
2024-02-03T00:22:08.850Z,2.50
2024-02-03T00:24:37.113Z,2.40
2024-02-03T00:27:06.309Z,2.40
2024-02-03T00:29:35.544Z,2.40
2024-02-03T00:32:03.680Z,2.40
2024-02-03T00:34:31.831Z,2.30
2024-02-03T00:37:02.602Z,2.30
2024-02-03T00:39:30.557Z,2.30
2024-02-03T00:41:58.647Z,2.20
2024-02-03T00:44:26.632Z,2.20
2024-02-03T00:46:54.588Z,2.20
2024-02-03T00:49:22.716Z,2.10
2024-02-03T00:51:51.177Z,2.10
2024-02-03T00:54:20.561Z,2.10
2024-02-03T00:56:48.575Z,2.10
2024-02-03T00:59:16.615Z,2.00
2024-02-03T01:01:45.142Z,2.00
2024-02-03T01:04:13.640Z,2.00
2024-02-03T01:06:41.810Z,1.90
2024-02-03T01:09:10.018Z,1.90
2024-02-03T01:11:39.862Z,1.80
2024-02-03T01:14:08.092Z,1.70
2024-02-03T01:16:36.275Z,1.70
2024-02-03T01:19:04.617Z,1.70
2024-02-03T01:21:32.958Z,1.70
2024-02-03T01:24:00.958Z,1.70
2024-02-03T01:26:30.525Z,1.70
2024-02-03T01:28:59.916Z,1.70
2024-02-03T01:31:31.668Z,1.70
2024-02-03T01:34:00.139Z,1.70
2024-02-03T01:36:28.210Z,1.60
2024-02-03T01:38:56.213Z,1.50
2024-02-03T01:41:24.225Z,1.50
2024-02-03T01:43:52.154Z,1.50
2024-02-03T01:46:22.098Z,1.60
2024-02-03T01:48:50.720Z,1.60
2024-02-03T01:51:20.509Z,1.60
2024-02-03T01:53:48.880Z,1.50
2024-02-03T01:56:19.901Z,1.60
2024-02-03T01:58:48.712Z,1.50
2024-02-03T02:01:17.339Z,1.50
2024-02-03T02:03:47.638Z,1.50
2024-02-03T02:06:15.819Z,1.50
2024-02-03T02:08:43.841Z,1.40
2024-02-03T02:11:13.443Z,1.50
2024-02-03T02:13:41.916Z,1.50
2024-02-03T02:16:10.121Z,1.50
2024-02-03T02:18:38.785Z,1.50
2024-02-03T02:21:08.396Z,1.40
2024-02-03T02:23:36.400Z,1.40
2024-02-03T02:26:04.420Z,1.40
2024-02-03T02:28:33.306Z,1.40
2024-02-03T02:31:01.367Z,1.30
2024-02-03T02:33:29.578Z,1.30
2024-02-03T02:35:57.818Z,1.40
2024-02-03T02:38:27.110Z,1.40
2024-02-03T02:40:55.047Z,1.50
2024-02-03T02:43:23.274Z,1.40
2024-02-03T02:45:51.310Z,1.30
2024-02-03T02:48:19.537Z,1.20
2024-02-03T02:50:47.662Z,1.10
2024-02-03T02:53:20.011Z,1.10
2024-02-03T02:55:49.319Z,1.10
2024-02-03T02:58:21.701Z,1.10
2024-02-03T03:00:50.143Z,1.10
2024-02-03T03:03:18.431Z,1.20
2024-02-03T03:05:46.394Z,1.40
2024-02-03T03:08:14.437Z,1.30
2024-02-03T03:10:42.537Z,1.30
2024-02-03T03:13:11.831Z,1.40
2024-02-03T03:15:40.942Z,1.30
2024-02-03T03:18:09.023Z,1.30
2024-02-03T03:20:37.131Z,1.30
2024-02-03T03:23:05.250Z,1.30
2024-02-03T03:25:33.114Z,1.30
2024-02-03T03:28:01.004Z,1.30
2024-02-03T03:30:30.489Z,1.10
2024-02-03T03:32:58.539Z,1.00
2024-02-03T03:35:27.023Z,0.90
2024-02-03T03:37:57.657Z,0.90
2024-02-03T03:40:25.680Z,0.90
2024-02-03T03:42:53.639Z,0.90
2024-02-03T03:45:21.613Z,0.90
2024-02-03T03:47:50.843Z,0.90
2024-02-03T03:50:23.254Z,0.90
2024-02-03T03:52:51.149Z,0.80
2024-02-03T03:55:18.163Z,0.90
2024-02-03T03:57:46.112Z,0.90
2024-02-03T04:00:15.372Z,1.00
2024-02-03T04:02:43.300Z,1.10
2024-02-03T04:05:12.577Z,1.10
2024-02-03T04:07:40.538Z,1.10
2024-02-03T04:10:09.231Z,1.00
2024-02-03T04:12:37.460Z,0.90
2024-02-03T04:15:06.119Z,0.80
2024-02-03T04:17:34.160Z,0.80
2024-02-03T04:20:02.340Z,0.90
2024-02-03T04:22:31.833Z,0.90
2024-02-03T04:24:59.753Z,0.90
2024-02-03T04:27:27.704Z,0.90
2024-02-03T04:29:55.790Z,0.80
2024-02-03T04:32:23.707Z,0.70
2024-02-03T04:34:51.646Z,0.70
2024-02-03T04:37:19.570Z,0.80
2024-02-03T04:39:48.827Z,0.90
2024-02-03T04:42:16.868Z,0.80
2024-02-03T04:44:44.969Z,0.90
2024-02-03T04:47:13.060Z,1.00
2024-02-03T04:49:41.393Z,1.00
2024-02-03T04:52:09.395Z,0.90
2024-02-03T04:54:37.319Z,0.90
2024-02-03T04:57:06.083Z,0.90
2024-02-03T04:59:33.924Z,0.80
2024-02-03T05:02:02.747Z,0.90
2024-02-03T05:04:30.762Z,0.90
2024-02-03T05:06:58.825Z,0.90
2024-02-03T05:09:27.006Z,0.80
2024-02-03T05:11:55.365Z,0.80
2024-02-03T05:14:24.539Z,0.90
2024-02-03T05:16:52.768Z,0.80
2024-02-03T05:19:20.714Z,0.70
2024-02-03T05:21:48.697Z,0.80
2024-02-03T05:24:16.644Z,0.70
2024-02-03T05:26:44.590Z,0.70
2024-02-03T05:29:12.454Z,0.70
2024-02-03T05:31:41.709Z,0.60
2024-02-03T05:34:12.942Z,0.60
2024-02-03T05:36:42.128Z,0.50
2024-02-03T05:39:15.967Z,0.40
2024-02-03T05:41:43.841Z,0.50
2024-02-03T05:44:11.720Z,0.50
2024-02-03T05:46:41.040Z,0.60
2024-02-03T05:49:09.169Z,0.60
2024-02-03T05:51:37.160Z,0.50
2024-02-03T05:54:05.171Z,0.70
2024-02-03T05:56:38.269Z,0.90
2024-02-03T05:59:21.410Z,1.00
2024-02-03T06:01:56.000Z,2.10
2024-02-03T06:04:24.582Z,2.50
2024-02-03T06:06:52.585Z,3.20
2024-02-03T06:09:20.535Z,3.80
2024-02-03T06:11:48.440Z,4.40
2024-02-03T06:14:16.360Z,4.60
2024-02-03T06:16:44.441Z,4.60
2024-02-03T06:19:13.946Z,4.70
2024-02-03T06:21:41.883Z,4.80
2024-02-03T06:24:10.352Z,4.80
2024-02-03T06:26:41.143Z,4.90
2024-02-03T06:29:11.840Z,5.00
2024-02-03T06:31:39.876Z,5.00
2024-02-03T06:34:08.037Z,5.00
2024-02-03T06:36:41.387Z,5.00
2024-02-03T06:39:09.647Z,5.00
2024-02-03T06:41:37.739Z,5.00
2024-02-03T06:44:06.107Z,5.00
2024-02-03T06:46:34.068Z,5.10
2024-02-03T06:49:02.040Z,5.10
2024-02-03T06:51:30.013Z,5.10
2024-02-03T06:53:59.242Z,5.10
2024-02-03T06:56:27.123Z,5.10
2024-02-03T06:58:55.218Z,5.20
2024-02-03T07:01:23.621Z,5.30
2024-02-03T07:03:51.668Z,5.50
2024-02-03T07:06:19.718Z,5.60
2024-02-03T07:08:49.898Z,5.60
2024-02-03T07:11:19.369Z,5.60
2024-02-03T07:13:47.404Z,5.70
2024-02-03T07:16:16.194Z,5.70
2024-02-03T07:18:47.217Z,5.70
2024-02-03T07:21:15.301Z,5.70
2024-02-03T07:23:53.147Z,5.80
2024-02-03T07:26:22.429Z,6.00
2024-02-03T07:28:55.481Z,6.20
2024-02-03T07:31:30.475Z,6.20
2024-02-03T07:34:00.957Z,6.30
2024-02-03T07:36:29.039Z,6.40
2024-02-03T07:39:02.447Z,6.50
2024-02-03T07:41:31.724Z,6.50
2024-02-03T07:44:02.201Z,6.70
2024-02-03T07:46:30.132Z,6.70
2024-02-03T07:48:58.025Z,6.80
2024-02-03T07:51:25.994Z,6.80
2024-02-03T07:53:53.931Z,6.90
2024-02-03T07:56:21.793Z,6.90
2024-02-03T07:58:51.667Z,6.90
2024-02-03T08:01:21.477Z,6.90
2024-02-03T08:03:50.633Z,7.00
2024-02-03T08:06:18.739Z,7.00
2024-02-03T08:08:46.742Z,7.00
2024-02-03T08:11:14.600Z,7.00
2024-02-03T08:13:42.528Z,6.90
2024-02-03T08:16:11.957Z,6.80
2024-02-03T08:18:40.039Z,6.90
2024-02-03T08:21:07.900Z,6.90
2024-02-03T08:23:35.713Z,6.80
2024-02-03T08:26:03.595Z,6.90
2024-02-03T08:28:31.573Z,6.90
2024-02-03T08:30:59.503Z,6.90
2024-02-03T08:33:29.421Z,6.90
2024-02-03T08:35:58.124Z,6.90
2024-02-03T08:38:26.744Z,7.00
2024-02-03T08:40:54.685Z,7.00
2024-02-03T08:43:22.739Z,7.10
2024-02-03T08:45:50.998Z,7.20
2024-02-03T08:48:19.083Z,7.20
2024-02-03T08:50:48.475Z,7.10
2024-02-03T08:53:16.719Z,7.10
2024-02-03T08:55:47.670Z,7.10
2024-02-03T08:58:15.546Z,7.00
2024-02-03T09:00:43.579Z,7.00
2024-02-03T09:03:11.594Z,7.00
2024-02-03T09:05:39.518Z,6.90
2024-02-03T09:08:09.405Z,6.90
2024-02-03T09:10:37.528Z,6.90
2024-02-03T09:13:05.725Z,7.00
2024-02-03T09:15:33.615Z,7.00
2024-02-03T09:18:01.780Z,6.90
2024-02-03T09:20:29.769Z,6.90
2024-02-03T09:22:57.712Z,6.90
2024-02-03T09:25:27.000Z,6.90
2024-02-03T09:27:54.922Z,6.90
2024-02-03T09:30:24.014Z,6.90
2024-02-03T09:32:52.029Z,6.90
2024-02-03T09:35:20.037Z,7.00
2024-02-03T09:40:21.866Z,7.20
2024-02-03T09:42:52.064Z,7.30
2024-02-03T09:45:21.466Z,7.30
2024-02-03T09:47:50.230Z,7.20
2024-02-03T09:50:18.476Z,7.30
2024-02-03T09:52:47.127Z,7.40
2024-02-03T09:55:17.370Z,7.50
2024-02-03T09:57:47.465Z,7.60
2024-02-03T10:00:21.985Z,7.70
2024-02-03T10:02:49.972Z,7.70
2024-02-03T10:05:27.491Z,7.70
2024-02-03T10:08:01.799Z,7.70
2024-02-03T10:13:09.602Z,7.70
2024-02-03T10:15:39.694Z,7.80
2024-02-03T10:18:09.409Z,7.80
2024-02-03T10:20:37.684Z,7.90
2024-02-03T10:23:06.072Z,7.90
2024-02-03T10:25:34.830Z,8.00
2024-02-03T10:28:04.650Z,8.30
2024-02-03T10:30:33.399Z,8.50
2024-02-03T10:33:03.989Z,8.40
2024-02-03T10:35:33.312Z,8.30
2024-02-03T10:38:01.785Z,8.50
2024-02-03T10:40:30.672Z,8.60
2024-02-03T10:43:02.445Z,8.80
2024-02-03T10:45:32.743Z,9.40
2024-02-03T10:48:04.023Z,10.30
2024-02-03T10:50:36.830Z,10.80
2024-02-03T10:53:08.085Z,11.30
2024-02-03T10:55:39.446Z,11.50
2024-02-03T10:58:09.087Z,11.20
2024-02-03T11:00:37.173Z,10.90
2024-02-03T11:03:07.156Z,11.10
2024-02-03T11:05:35.374Z,11.70
2024-02-03T11:08:08.140Z,12.70
2024-02-03T11:10:39.017Z,13.20
2024-02-03T11:13:22.655Z,12.90
2024-02-03T11:15:57.631Z,12.50
2024-02-03T11:18:28.441Z,11.90
2024-02-03T11:21:06.086Z,11.30
2024-02-03T11:23:34.181Z,10.90
2024-02-03T11:26:02.098Z,10.50
2024-02-03T11:28:33.414Z,10.20
2024-02-03T11:31:02.051Z,10.00
2024-02-03T11:33:31.513Z,9.90
2024-02-03T11:36:01.024Z,9.90
2024-02-03T11:38:28.997Z,9.90
2024-02-03T11:41:01.067Z,9.70
2024-02-03T11:43:30.853Z,9.70
2024-02-03T11:46:03.583Z,9.80
2024-02-03T11:48:33.098Z,9.90
2024-02-03T11:51:01.493Z,9.90
2024-02-03T11:53:29.472Z,9.70
2024-02-03T11:55:57.896Z,9.60
2024-02-03T11:58:26.017Z,9.70
2024-02-03T12:01:03.663Z,9.70
2024-02-03T12:03:32.921Z,9.90
2024-02-03T12:06:01.260Z,10.10
2024-02-03T12:08:29.289Z,9.90
2024-02-03T12:10:57.279Z,9.90
2024-02-03T12:13:25.246Z,10.10
2024-02-03T12:15:53.806Z,10.10
2024-02-03T12:18:21.845Z,10.30
2024-02-03T12:20:51.387Z,10.30
2024-02-03T12:23:20.255Z,10.20
2024-02-03T12:25:49.855Z,10.10
2024-02-03T12:28:22.124Z,10.10
2024-02-03T12:30:56.908Z,10.20
2024-02-03T12:33:25.601Z,10.20
2024-02-03T12:35:55.044Z,10.10
2024-02-03T12:38:23.425Z,10.10
2024-02-03T12:40:51.609Z,10.20
2024-02-03T12:43:19.511Z,10.30
2024-02-03T12:45:47.557Z,10.20
2024-02-03T12:48:15.745Z,10.20
2024-02-03T12:50:44.723Z,10.10
2024-02-03T12:53:14.308Z,10.20
2024-02-03T12:55:42.218Z,10.10
2024-02-03T12:58:10.117Z,10.10
2024-02-03T13:00:38.193Z,10.20
2024-02-03T13:03:06.457Z,10.10
2024-02-03T13:05:34.682Z,10.10
2024-02-03T13:08:02.739Z,10.00
2024-02-03T13:10:32.050Z,9.90
2024-02-03T13:12:59.944Z,9.90
2024-02-03T13:15:27.891Z,9.90
2024-02-03T13:17:55.802Z,10.00
2024-02-03T13:20:24.080Z,10.00
2024-02-03T13:22:51.942Z,9.90
2024-02-03T13:25:19.884Z,9.80
2024-02-03T13:27:49.276Z,9.80
2024-02-03T13:30:17.550Z,9.90
2024-02-03T13:32:45.971Z,9.90
2024-02-03T13:35:14.626Z,9.80
2024-02-03T13:37:42.786Z,9.80
2024-02-03T13:40:11.435Z,9.80
2024-02-03T13:42:40.468Z,9.80
2024-02-03T13:45:10.458Z,9.80
2024-02-03T13:47:38.423Z,9.80
2024-02-03T13:50:07.556Z,9.90
2024-02-03T13:52:35.458Z,9.90
2024-02-03T13:55:03.543Z,9.90
2024-02-03T13:57:31.641Z,9.90
2024-02-03T13:59:59.551Z,9.90
2024-02-03T14:02:29.134Z,9.90
2024-02-03T14:04:57.131Z,9.90
2024-02-03T14:07:25.045Z,9.90
2024-02-03T14:09:53.026Z,10.00
2024-02-03T14:12:21.006Z,9.90
2024-02-03T14:14:48.912Z,9.90
2024-02-03T14:17:16.787Z,9.80
2024-02-03T14:19:46.173Z,9.90
2024-02-03T14:22:14.982Z,9.90
2024-02-03T14:24:43.189Z,9.90
2024-02-03T14:27:11.233Z,10.10
2024-02-03T14:29:39.440Z,10.20
2024-02-03T14:32:07.596Z,10.20
2024-02-03T14:34:35.984Z,10.20
2024-02-03T14:37:05.793Z,10.20
2024-02-03T14:39:34.519Z,10.20
2024-02-03T14:42:02.499Z,10.20
2024-02-03T14:44:30.446Z,10.10
2024-02-03T14:46:58.449Z,10.10
2024-02-03T14:49:26.490Z,10.20
2024-02-03T14:51:54.605Z,10.20
2024-02-03T14:54:24.033Z,10.10
2024-02-03T14:56:52.036Z,10.10
2024-02-03T14:59:19.931Z,10.20
2024-02-03T15:01:47.889Z,10.20
2024-02-03T15:04:15.829Z,10.20
2024-02-03T15:06:44.239Z,10.30
2024-02-03T15:09:12.393Z,10.20
2024-02-03T15:11:41.640Z,10.20
2024-02-03T15:14:09.619Z,10.20
2024-02-03T15:16:37.684Z,10.10
2024-02-03T15:19:06.288Z,10.00
2024-02-03T15:21:39.575Z,10.10
2024-02-03T15:24:08.804Z,10.00
2024-02-03T15:26:36.809Z,9.90
2024-02-03T15:29:07.044Z,9.90
2024-02-03T15:31:34.928Z,10.00
2024-02-03T15:34:03.171Z,10.00
2024-02-03T15:36:31.332Z,9.90
2024-02-03T15:38:59.544Z,9.90
2024-02-03T15:41:27.592Z,9.90
2024-02-03T15:43:55.738Z,9.80
2024-02-03T15:46:33.949Z,9.80
2024-02-03T15:49:08.558Z,9.80
2024-02-03T15:51:40.198Z,9.70
2024-02-03T15:54:08.149Z,9.70
2024-02-03T15:56:36.887Z,9.70
2024-02-03T15:59:05.128Z,9.70
2024-02-03T16:01:34.683Z,9.70
2024-02-03T16:04:04.788Z,9.60
2024-02-03T16:06:33.363Z,9.60
2024-02-03T16:09:01.473Z,9.60
2024-02-03T16:11:29.560Z,9.60
2024-02-03T16:14:00.457Z,9.60
2024-02-03T16:16:28.765Z,9.50
2024-02-03T16:18:58.286Z,9.50
2024-02-03T16:21:26.327Z,9.40
2024-02-03T16:23:55.566Z,9.40
2024-02-03T16:26:24.158Z,9.40
2024-02-03T16:28:52.242Z,9.40
2024-02-03T16:31:20.464Z,9.40
2024-02-03T16:33:48.592Z,9.30
2024-02-03T16:36:18.069Z,9.30
2024-02-03T16:38:46.004Z,9.30
2024-02-03T16:41:13.941Z,9.30
2024-02-03T16:43:41.760Z,9.30
2024-02-03T16:46:09.752Z,9.40
2024-02-03T16:48:37.892Z,9.40
2024-02-03T16:51:06.114Z,9.30
2024-02-03T16:53:35.309Z,9.30
2024-02-03T16:56:03.172Z,9.30
2024-02-03T16:58:31.123Z,9.30
2024-02-03T17:00:59.049Z,9.30
2024-02-03T17:03:27.076Z,9.30
2024-02-03T17:05:55.166Z,9.30
2024-02-03T17:08:23.201Z,9.30
2024-02-03T17:10:53.998Z,9.30
2024-02-03T17:13:22.795Z,9.30
2024-02-03T17:15:50.738Z,9.30
2024-02-03T17:18:19.110Z,9.30
2024-02-03T17:20:47.072Z,9.40
2024-02-03T17:23:15.030Z,9.30
2024-02-03T17:25:43.258Z,9.30
2024-02-03T17:28:12.574Z,9.30
2024-02-03T17:30:40.698Z,9.30
2024-02-03T17:33:08.681Z,9.20
2024-02-03T17:35:37.781Z,9.20
2024-02-03T17:38:05.857Z,9.20
2024-02-03T17:40:33.821Z,9.10
2024-02-03T17:43:01.927Z,9.10
2024-02-03T17:45:31.190Z,9.20
2024-02-03T17:47:59.167Z,9.20
2024-02-03T17:50:27.417Z,9.20
2024-02-03T17:52:55.299Z,9.20
2024-02-03T17:55:23.175Z,9.10
2024-02-03T17:57:51.121Z,9.10
2024-02-03T18:00:19.886Z,9.10
2024-02-03T18:02:49.241Z,9.10
2024-02-03T18:05:19.302Z,9.10
2024-02-03T18:07:47.236Z,9.10
2024-02-03T18:10:15.257Z,9.10
2024-02-03T18:12:43.870Z,9.20
2024-02-03T18:15:12.582Z,9.20
2024-02-03T18:17:40.476Z,9.10
2024-02-03T18:20:15.990Z,9.20
2024-02-03T18:22:46.557Z,9.20
2024-02-03T18:25:14.614Z,9.10
2024-02-03T18:27:42.777Z,9.10
2024-02-03T18:30:11.480Z,9.10
2024-02-03T18:32:41.334Z,9.10
2024-02-03T18:35:11.335Z,9.20
2024-02-03T18:37:40.190Z,9.20
2024-02-03T18:40:10.071Z,9.20
2024-02-03T18:42:42.645Z,9.10
2024-02-03T18:45:13.526Z,9.20
2024-02-03T18:47:41.996Z,9.10
2024-02-03T18:50:11.781Z,9.10
2024-02-03T18:52:39.674Z,9.10
2024-02-03T18:55:08.541Z,9.00
2024-02-03T18:57:37.265Z,9.10
2024-02-03T19:00:07.852Z,9.10
2024-02-03T19:02:35.938Z,9.10
2024-02-03T19:05:04.301Z,9.00
2024-02-03T19:07:33.530Z,9.10
2024-02-03T19:10:01.827Z,9.10
2024-02-03T19:12:30.904Z,9.10
2024-02-03T19:14:58.973Z,9.00
2024-02-03T19:17:27.023Z,9.10
2024-02-03T19:19:55.193Z,9.00
2024-02-03T19:22:24.128Z,9.00
2024-02-03T19:24:53.463Z,9.10
2024-02-03T19:27:21.546Z,9.00
2024-02-03T19:29:49.534Z,9.00
2024-02-03T19:32:17.434Z,9.00
2024-02-03T19:34:45.558Z,9.00
2024-02-03T19:37:13.666Z,9.00
2024-02-03T19:39:41.578Z,9.10
2024-02-03T19:42:10.852Z,9.00
2024-02-03T19:44:38.733Z,9.00
2024-02-03T19:47:06.765Z,9.00
2024-02-03T19:49:34.946Z,8.90
2024-02-03T19:52:03.064Z,9.00
2024-02-03T19:54:30.992Z,9.00
2024-02-03T19:56:58.900Z,9.10
2024-02-03T19:59:29.820Z,9.00
2024-02-03T20:01:58.012Z,9.00
2024-02-03T20:04:26.080Z,9.00
2024-02-03T20:06:54.138Z,9.00
2024-02-03T20:09:22.977Z,9.00
2024-02-03T20:11:51.056Z,9.00
2024-02-03T20:14:18.997Z,9.10
2024-02-03T20:16:50.522Z,9.10
2024-02-03T20:19:19.413Z,9.00
2024-02-03T20:21:47.750Z,9.00
2024-02-03T20:24:16.156Z,9.00
2024-02-03T20:26:44.188Z,9.00
2024-02-03T20:29:15.925Z,9.00
2024-02-03T20:31:44.388Z,9.10
2024-02-03T20:34:18.143Z,9.10
2024-02-03T20:36:47.401Z,9.00
2024-02-03T20:39:16.109Z,9.00
2024-02-03T20:41:44.260Z,9.10
2024-02-03T20:44:14.046Z,9.10
2024-02-03T20:46:42.394Z,9.00
2024-02-03T20:49:10.624Z,9.00
2024-02-03T20:51:41.428Z,9.00
2024-02-03T20:54:09.763Z,9.00
2024-02-03T20:56:38.885Z,8.90
2024-02-03T20:59:06.971Z,8.90
2024-02-03T21:01:35.078Z,9.00
2024-02-03T21:04:03.725Z,9.00
2024-02-03T21:06:31.981Z,9.00
2024-02-03T21:09:02.205Z,8.90
2024-02-03T21:11:37.002Z,8.90
2024-02-03T21:14:06.346Z,9.00
2024-02-03T21:16:34.531Z,9.00
2024-02-03T21:19:02.873Z,9.00
2024-02-03T21:21:35.138Z,9.00
2024-02-03T21:24:05.054Z,9.10
2024-02-03T21:26:33.032Z,9.10
2024-02-03T21:29:01.068Z,9.00
2024-02-03T21:31:28.972Z,9.00
2024-02-03T21:33:57.326Z,9.10
2024-02-03T21:36:25.900Z,9.10
2024-02-03T21:38:53.852Z,9.00
2024-02-03T21:41:23.263Z,9.00
2024-02-03T21:43:52.936Z,9.00
2024-02-03T21:46:20.880Z,8.90
2024-02-03T21:48:49.374Z,8.90
2024-02-03T21:51:18.207Z,8.90
2024-02-03T21:53:46.755Z,8.90
2024-02-03T21:56:16.605Z,9.00
2024-02-03T21:58:46.163Z,8.90
2024-02-03T22:01:14.492Z,8.90
2024-02-03T22:03:42.576Z,8.90
2024-02-03T22:06:10.631Z,8.90
2024-02-03T22:08:38.788Z,8.90
2024-02-03T22:11:06.942Z,9.00
2024-02-03T22:13:34.923Z,9.00
2024-02-03T22:16:04.352Z,9.00
2024-02-03T22:18:32.440Z,9.10
2024-02-03T22:21:02.333Z,9.10
2024-02-03T22:23:30.250Z,9.10
2024-02-03T22:25:58.102Z,9.10
2024-02-03T22:28:26.305Z,9.10
2024-02-03T22:30:54.277Z,9.10
2024-02-03T22:33:23.729Z,9.20
2024-02-03T22:35:51.862Z,9.20
2024-02-03T22:38:19.759Z,9.20
2024-02-03T22:40:47.786Z,9.20
2024-02-03T22:43:15.649Z,9.20
2024-02-03T22:45:43.560Z,9.20
2024-02-03T22:48:11.621Z,9.30
2024-02-03T22:50:40.892Z,9.30
2024-02-03T22:53:08.870Z,9.20
2024-02-03T22:55:37.158Z,9.20
2024-02-03T22:58:05.290Z,9.20
2024-02-03T23:00:37.964Z,9.20
2024-02-03T23:03:06.794Z,9.20
2024-02-03T23:05:34.881Z,9.10
2024-02-03T23:08:04.253Z,9.20
2024-02-03T23:10:32.114Z,9.20
2024-02-03T23:13:00.026Z,9.10
2024-02-03T23:15:27.960Z,9.10
2024-02-03T23:17:55.979Z,9.20
2024-02-03T23:20:24.075Z,9.20
2024-02-03T23:22:52.041Z,9.20
2024-02-03T23:25:22.933Z,9.20
2024-02-03T23:27:50.890Z,9.20
2024-02-03T23:30:19.030Z,9.20
2024-02-03T23:32:46.952Z,9.20
2024-02-03T23:35:15.406Z,9.10
2024-02-03T23:37:43.306Z,9.10
2024-02-03T23:40:11.820Z,9.10
2024-02-03T23:42:41.115Z,9.10
2024-02-03T23:45:09.714Z,9.10
2024-02-03T23:47:37.684Z,9.10
2024-02-03T23:50:06.423Z,9.10
2024-02-03T23:52:34.357Z,9.10
2024-02-03T23:55:02.530Z,9.10
2024-02-03T23:57:30.575Z,9.00
2024-02-03T23:59:59.896Z,9.00
